createdAt,value
2022-08-26T00:01:41.681Z,25.35
2022-08-26T00:04:12.034Z,18.83
2022-08-26T00:06:39.128Z,15.25
2022-08-26T00:09:09.450Z,18.60
2022-08-26T00:11:36.419Z,15.10
2022-08-26T00:14:03.115Z,22.00
2022-08-26T00:16:30.051Z,21.98
2022-08-26T00:18:56.949Z,20.85
2022-08-26T00:21:23.998Z,19.48
2022-08-26T00:32:06.982Z,18.38
2022-08-26T00:34:39.575Z,20.45
2022-08-26T00:37:16.219Z,15.07
2022-08-26T00:43:46.236Z,18.23
2022-08-26T00:46:50.914Z,21.77
2022-08-26T00:49:37.382Z,18.50
2022-08-26T00:52:07.074Z,30.27
2022-08-26T00:54:47.145Z,18.65
2022-08-26T01:02:06.789Z,14.55
2022-08-26T01:04:48.662Z,16.60
2022-08-26T01:07:21.852Z,22.98
2022-08-26T01:09:48.796Z,17.70
2022-08-26T01:12:15.966Z,16.38
2022-08-26T01:14:49.694Z,19.52
2022-08-26T01:17:16.507Z,18.40
2022-08-26T01:19:50.809Z,19.95
2022-08-26T01:22:56.152Z,27.17
2022-08-26T01:25:26.071Z,19.63
2022-08-26T01:27:57.573Z,18.02
2022-08-26T01:30:27.178Z,27.10
2022-08-26T01:32:57.801Z,20.25
2022-08-26T01:35:25.008Z,20.70
2022-08-26T01:37:54.620Z,18.67
2022-08-26T01:43:32.495Z,21.20
2022-08-26T01:45:59.473Z,22.92
2022-08-26T01:48:30.244Z,23.05
2022-08-26T01:51:01.028Z,16.98
2022-08-26T01:53:31.186Z,19.27
2022-08-26T01:56:00.854Z,20.50
2022-08-26T01:58:44.723Z,19.20
2022-08-26T02:01:11.706Z,18.27
2022-08-26T02:04:00.667Z,15.70
2022-08-26T02:06:27.616Z,16.20
2022-08-26T02:08:56.700Z,18.55
2022-08-26T02:11:23.750Z,18.38
2022-08-26T02:14:02.693Z,22.85
2022-08-26T02:16:34.435Z,18.48
2022-08-26T02:19:04.223Z,23.20
2022-08-26T02:21:31.212Z,23.90
2022-08-26T02:24:09.106Z,20.95
2022-08-26T02:26:35.995Z,23.60
2022-08-26T02:29:07.767Z,26.23
2022-08-26T02:31:34.460Z,13.75
2022-08-26T02:34:26.216Z,22.00
2022-08-26T02:37:02.801Z,21.70
2022-08-26T02:39:33.554Z,18.92
2022-08-26T02:42:00.188Z,17.63
2022-08-26T02:44:27.365Z,20.05
2022-08-26T02:46:54.782Z,17.60
2022-08-26T02:49:22.392Z,16.50
2022-08-26T02:51:50.194Z,26.83
2022-08-26T02:54:19.028Z,14.23
2022-08-26T02:56:45.803Z,24.45
2022-08-26T02:59:12.794Z,16.40
2022-08-26T03:01:40.778Z,21.00
2022-08-26T03:04:10.492Z,19.20
2022-08-26T03:06:40.690Z,17.27
2022-08-26T03:09:11.132Z,20.15
2022-08-26T03:11:47.410Z,20.15
2022-08-26T03:14:14.335Z,27.98
2022-08-26T03:16:41.836Z,23.80
2022-08-26T03:22:25.245Z,21.40
2022-08-26T03:25:19.654Z,24.17
2022-08-26T03:27:53.292Z,20.05
2022-08-26T03:30:56.596Z,19.70
2022-08-26T03:36:32.646Z,21.17
2022-08-26T03:42:07.268Z,18.92
2022-08-26T03:44:45.578Z,15.73
2022-08-26T03:47:34.502Z,19.27
2022-08-26T03:50:17.603Z,21.70
2022-08-26T03:53:16.177Z,18.38
2022-08-26T03:56:06.841Z,24.52
2022-08-26T03:58:58.832Z,18.38
2022-08-26T04:01:55.921Z,17.83
2022-08-26T04:04:38.768Z,22.45
2022-08-26T04:07:17.931Z,21.20
2022-08-26T04:10:05.957Z,15.20
2022-08-26T04:13:06.988Z,22.27
2022-08-26T04:15:56.721Z,24.73
2022-08-26T04:21:47.305Z,19.13
2022-08-26T04:24:28.797Z,20.52
2022-08-26T04:27:07.312Z,23.92
2022-08-26T04:33:12.607Z,23.83
2022-08-26T04:36:13.306Z,19.05
2022-08-26T04:39:32.953Z,19.02
2022-08-26T04:50:07.611Z,21.60
2022-08-26T04:52:53.599Z,21.45
2022-08-26T04:58:52.177Z,26.63
2022-08-26T05:01:45.133Z,25.00
2022-08-26T05:05:05.556Z,21.42
2022-08-26T05:07:36.731Z,25.67
2022-08-26T06:34:58.222Z,32.05
2022-08-26T07:00:36.026Z,41.20
2022-08-26T07:10:26.474Z,29.75
2022-08-26T08:52:59.391Z,31.48
2022-08-26T08:56:03.343Z,33.35
2022-08-26T08:58:59.171Z,30.23
2022-08-26T09:05:34.722Z,34.08
2022-08-26T09:08:15.825Z,30.55
2022-08-26T09:11:14.093Z,30.35
2022-08-26T09:13:47.880Z,31.08
2022-08-26T09:16:28.105Z,24.38
2022-08-26T09:19:33.857Z,33.92
2022-08-26T09:22:08.769Z,38.90
2022-08-26T09:24:56.459Z,29.70
2022-08-26T09:28:02.858Z,36.90
2022-08-26T09:30:41.526Z,28.92
2022-08-26T09:33:24.333Z,28.52
2022-08-26T09:36:31.328Z,33.50
2022-08-26T09:42:06.893Z,38.35
2022-08-26T09:45:25.783Z,32.33
2022-08-26T09:48:04.989Z,35.08
2022-08-26T09:51:28.084Z,27.48
2022-08-26T09:58:08.738Z,24.40
2022-08-26T10:01:07.065Z,31.20
2022-08-26T10:03:41.286Z,22.73
2022-08-26T10:06:17.072Z,36.72
2022-08-26T10:08:57.778Z,29.93
2022-08-26T10:15:16.196Z,26.45
2022-08-26T10:22:18.832Z,30.27
2022-08-26T10:25:09.032Z,37.60
2022-08-26T10:31:40.384Z,33.67
2022-08-26T10:34:12.583Z,26.08
2022-08-26T10:37:41.747Z,39.92
2022-08-26T10:40:35.812Z,31.40
2022-08-26T10:43:31.952Z,27.63
2022-08-26T10:46:10.147Z,34.50
2022-08-26T10:49:08.614Z,27.25
2022-08-26T10:51:54.995Z,21.02
2022-08-26T10:54:46.593Z,37.20
2022-08-26T10:58:26.578Z,40.40
2022-08-26T11:01:47.066Z,29.77
2022-08-26T11:08:36.532Z,41.80
2022-08-26T11:11:03.259Z,27.38
2022-08-26T11:14:16.624Z,28.15
2022-08-26T11:16:59.159Z,24.50
2022-08-26T11:19:58.879Z,30.45
2022-08-26T11:22:30.364Z,40.42
2022-08-26T11:24:57.497Z,29.65
2022-08-26T11:27:25.001Z,33.03
2022-08-26T11:35:38.086Z,33.60
2022-08-26T11:38:28.630Z,33.95
2022-08-26T11:41:22.659Z,19.73
2022-08-26T11:43:53.222Z,23.67
2022-08-26T11:46:35.867Z,21.50
2022-08-26T11:49:06.063Z,19.17
2022-08-26T11:51:38.215Z,16.90
2022-08-26T12:06:29.859Z,6.53
2022-08-26T12:09:06.222Z,8.27
2022-08-26T12:11:42.096Z,17.77
2022-08-26T12:14:27.710Z,9.93
2022-08-26T12:16:54.808Z,10.88
2022-08-26T12:19:46.224Z,14.68
2022-08-26T12:22:29.431Z,5.18
2022-08-26T12:24:59.208Z,6.68
2022-08-26T12:27:35.687Z,14.50
2022-08-26T13:01:43.585Z,28.00
2022-08-26T13:04:31.961Z,15.73
2022-08-26T13:07:27.304Z,13.65
2022-08-26T13:10:02.425Z,15.02
2022-08-26T13:12:34.892Z,17.73
2022-08-26T13:15:01.752Z,21.65
2022-08-26T13:17:29.816Z,18.88
2022-08-26T13:20:01.275Z,15.02
2022-08-26T13:22:30.069Z,17.27
2022-08-26T13:24:57.526Z,15.85
2022-08-26T13:27:26.434Z,16.50
2022-08-26T13:29:54.008Z,13.88
2022-08-26T13:32:25.175Z,10.48
2022-08-26T13:34:56.434Z,21.45
2022-08-26T13:37:34.383Z,13.38
2022-08-26T13:40:04.906Z,21.48
2022-08-26T13:42:31.525Z,10.95
2022-08-26T13:44:58.942Z,11.73
2022-08-26T13:47:26.247Z,14.07
2022-08-26T13:49:54.596Z,13.93
2022-08-26T13:52:29.155Z,15.30
2022-08-26T13:54:57.274Z,12.35
2022-08-26T13:57:24.753Z,19.48
2022-08-26T13:59:53.986Z,14.75
2022-08-26T14:02:31.228Z,18.90
2022-08-26T14:07:24.555Z,20.02
2022-08-26T14:12:17.933Z,15.23
2022-08-26T14:14:45.081Z,16.67
2022-08-26T14:17:17.784Z,11.38
2022-08-26T14:19:47.058Z,14.68
2022-08-26T14:22:17.385Z,10.98
2022-08-26T14:24:45.150Z,14.57
2022-08-26T14:27:12.962Z,14.82
2022-08-26T14:29:40.101Z,18.40
2022-08-26T14:32:11.525Z,17.67
2022-08-26T14:34:41.397Z,19.05
2022-08-26T14:37:09.889Z,15.90
2022-08-26T14:39:39.021Z,14.35
2022-08-26T14:42:06.520Z,10.95
2022-08-26T14:44:33.652Z,19.73
2022-08-26T14:47:03.855Z,19.10
2022-08-26T14:49:31.334Z,18.50
2022-08-26T14:52:01.417Z,20.40
2022-08-26T14:54:29.585Z,17.00
2022-08-26T14:57:19.627Z,21.15
2022-08-26T14:59:52.940Z,16.13
2022-08-26T15:02:33.196Z,17.52
2022-08-26T15:05:00.492Z,14.82
2022-08-26T15:07:41.783Z,24.60
2022-08-26T15:10:13.444Z,14.73
2022-08-26T15:12:42.462Z,27.70
2022-08-26T15:15:11.301Z,25.02
2022-08-26T15:17:41.141Z,22.75
2022-08-26T15:20:12.550Z,13.38
2022-08-26T15:22:39.919Z,16.17
2022-08-26T15:25:07.705Z,17.50
2022-08-26T15:27:36.808Z,11.07
2022-08-26T15:30:07.018Z,18.70
2022-08-26T15:32:33.562Z,19.45
2022-08-26T15:35:00.075Z,19.20
2022-08-26T15:37:26.589Z,16.33
2022-08-26T15:39:58.802Z,23.20
2022-08-26T15:42:25.438Z,13.85
2022-08-26T15:47:19.252Z,13.85
2022-08-26T15:49:45.898Z,24.42
2022-08-26T15:52:12.401Z,21.15
2022-08-26T15:54:39.659Z,15.35
2022-08-26T15:57:10.757Z,16.85
2022-08-26T15:59:38.171Z,24.92
2022-08-26T16:02:05.424Z,11.07
2022-08-26T16:04:32.309Z,12.43
2022-08-26T16:06:59.191Z,13.38
2022-08-26T16:09:27.227Z,12.63
2022-08-26T16:11:54.950Z,18.02
2022-08-26T16:14:22.252Z,14.65
2022-08-26T16:16:49.020Z,16.15
2022-08-26T16:19:15.860Z,14.13
2022-08-26T16:21:43.106Z,12.88
2022-08-26T16:24:09.950Z,14.50
2022-08-26T16:26:38.610Z,10.32
2022-08-26T16:29:14.486Z,20.65
2022-08-26T16:31:41.845Z,20.35
2022-08-26T16:34:09.612Z,24.20
2022-08-26T16:36:42.687Z,15.95
2022-08-26T16:39:15.678Z,17.55
2022-08-26T16:41:42.426Z,12.32
2022-08-26T16:44:12.250Z,20.88
2022-08-26T16:46:39.833Z,18.15
2022-08-26T16:49:06.628Z,12.60
2022-08-26T16:51:48.751Z,13.40
2022-08-26T16:54:15.859Z,22.38
2022-08-26T16:56:42.651Z,14.68
2022-08-26T16:59:11.714Z,15.10
2022-08-26T17:01:38.722Z,14.82
2022-08-26T17:04:05.411Z,10.95
2022-08-26T17:08:58.645Z,17.60
2022-08-26T17:11:25.567Z,16.33
2022-08-26T17:13:52.270Z,9.57
2022-08-26T17:18:49.965Z,18.02
2022-08-26T17:23:43.736Z,19.52
2022-08-26T17:26:12.128Z,17.55
2022-08-26T17:28:39.649Z,13.38
2022-08-26T17:31:06.940Z,16.20
2022-08-26T17:33:33.984Z,14.20
2022-08-26T17:36:00.780Z,17.83
2022-08-26T17:38:29.320Z,16.77
2022-08-26T17:41:07.192Z,13.07
2022-08-26T17:43:34.566Z,14.15
2022-08-26T17:46:07.486Z,18.65
2022-08-26T17:48:57.137Z,22.23
2022-08-26T17:51:37.771Z,18.15
2022-08-26T17:54:36.038Z,14.20
2022-08-26T21:37:21.889Z,19.55
2022-08-26T21:39:48.720Z,29.38
2022-08-26T21:42:38.492Z,20.77
2022-08-26T21:48:50.524Z,19.20
2022-08-26T21:51:20.148Z,23.95
2022-08-26T21:53:47.449Z,15.45
2022-08-26T21:56:17.107Z,15.52
2022-08-26T21:58:44.241Z,20.02
2022-08-26T22:01:17.271Z,20.10
2022-08-26T22:05:23.472Z,21.33
2022-08-26T22:07:50.115Z,24.83
2022-08-26T22:10:35.360Z,17.35
2022-08-26T22:21:00.912Z,20.23
2022-08-26T22:23:30.721Z,16.55
2022-08-26T22:26:00.874Z,20.15
2022-08-26T22:28:38.393Z,13.05
2022-08-26T22:36:01.978Z,24.13
2022-08-26T22:38:28.647Z,12.82
2022-08-26T22:45:55.813Z,16.25
2022-08-26T22:48:24.598Z,16.02
2022-08-26T22:50:58.239Z,34.42
2022-08-26T22:53:26.628Z,23.52
2022-08-26T22:55:53.509Z,20.73
2022-08-26T22:58:20.592Z,16.73
2022-08-26T23:00:59.241Z,21.52
2022-08-26T23:03:27.228Z,15.25
2022-08-26T23:05:55.394Z,21.75
2022-08-26T23:08:23.188Z,24.63
2022-08-26T23:10:49.745Z,22.73
2022-08-26T23:13:16.265Z,17.80
2022-08-26T23:15:44.737Z,16.50
2022-08-26T23:18:12.882Z,14.55
2022-08-26T23:20:40.647Z,30.75
2022-08-26T23:23:07.574Z,22.52
2022-08-26T23:25:34.411Z,27.05
2022-08-26T23:28:01.931Z,16.00
2022-08-26T23:30:31.186Z,18.60
2022-08-26T23:32:57.942Z,31.90
2022-08-26T23:37:53.049Z,21.25
2022-08-26T23:40:25.501Z,32.30
2022-08-26T23:42:54.389Z,32.08
2022-08-26T23:45:22.168Z,20.88
2022-08-26T23:47:50.582Z,21.20
2022-08-26T23:50:19.574Z,19.88
2022-08-26T23:53:05.625Z,17.58
2022-08-26T23:55:37.256Z,14.70
2022-08-26T23:58:04.545Z,26.02
